sensor_id;sensor_type;location;lat;lon;timestamp;P1;durP1;ratioP1;P2;durP2;ratioP2
57225;SDS011;43082;43.568;22.256;2023-01-28T00:02:19;25.90;;;18.05;;
57225;SDS011;43082;43.568;22.256;2023-01-28T00:04:44;27.10;;;17.88;;
57225;SDS011;43082;43.568;22.256;2023-01-28T00:07:09;26.63;;;18.58;;
57225;SDS011;43082;43.568;22.256;2023-01-28T00:09:35;30.10;;;20.50;;
57225;SDS011;43082;43.568;22.256;2023-01-28T00:12:00;31.27;;;21.20;;
57225;SDS011;43082;43.568;22.256;2023-01-28T00:14:25;36.05;;;22.42;;
57225;SDS011;43082;43.568;22.256;2023-01-28T00:16:52;35.40;;;24.05;;
57225;SDS011;43082;43.568;22.256;2023-01-28T00:19:17;34.25;;;22.60;;
57225;SDS011;43082;43.568;22.256;2023-01-28T00:21:42;31.83;;;21.65;;
57225;SDS011;43082;43.568;22.256;2023-01-28T00:24:08;30.95;;;20.55;;
57225;SDS011;43082;43.568;22.256;2023-01-28T00:26:33;30.85;;;21.08;;
57225;SDS011;43082;43.568;22.256;2023-01-28T00:28:59;26.20;;;17.40;;
57225;SDS011;43082;43.568;22.256;2023-01-28T00:31:25;23.70;;;15.93;;
57225;SDS011;43082;43.568;22.256;2023-01-28T00:33:51;24.85;;;16.33;;
57225;SDS011;43082;43.568;22.256;2023-01-28T00:36:18;26.95;;;17.05;;
57225;SDS011;43082;43.568;22.256;2023-01-28T00:38:49;29.88;;;20.00;;
57225;SDS011;43082;43.568;22.256;2023-01-28T00:41:18;29.77;;;18.88;;
57225;SDS011;43082;43.568;22.256;2023-01-28T00:43:46;38.38;;;24.73;;
57225;SDS011;43082;43.568;22.256;2023-01-28T00:46:11;35.25;;;22.52;;
57225;SDS011;43082;43.568;22.256;2023-01-28T00:48:38;31.92;;;20.55;;
57225;SDS011;43082;43.568;22.256;2023-01-28T00:51:04;28.25;;;17.90;;
57225;SDS011;43082;43.568;22.256;2023-01-28T00:53:30;28.83;;;18.38;;
57225;SDS011;43082;43.568;22.256;2023-01-28T00:55:56;26.05;;;16.90;;
57225;SDS011;43082;43.568;22.256;2023-01-28T00:58:21;30.08;;;17.83;;
57225;SDS011;43082;43.568;22.256;2023-01-28T01:00:48;27.98;;;16.92;;
57225;SDS011;43082;43.568;22.256;2023-01-28T01:03:14;26.15;;;16.55;;
57225;SDS011;43082;43.568;22.256;2023-01-28T01:05:40;24.80;;;16.20;;
57225;SDS011;43082;43.568;22.256;2023-01-28T01:08:05;25.02;;;16.05;;
57225;SDS011;43082;43.568;22.256;2023-01-28T01:10:30;26.65;;;17.80;;
57225;SDS011;43082;43.568;22.256;2023-01-28T01:12:56;26.10;;;17.60;;
57225;SDS011;43082;43.568;22.256;2023-01-28T01:15:23;20.73;;;13.80;;
57225;SDS011;43082;43.568;22.256;2023-01-28T01:17:48;23.52;;;16.17;;
57225;SDS011;43082;43.568;22.256;2023-01-28T01:20:22;21.25;;;14.20;;
57225;SDS011;43082;43.568;22.256;2023-01-28T01:22:48;20.13;;;13.73;;
57225;SDS011;43082;43.568;22.256;2023-01-28T01:25:14;20.30;;;13.88;;
57225;SDS011;43082;43.568;22.256;2023-01-28T01:27:40;22.40;;;15.30;;
57225;SDS011;43082;43.568;22.256;2023-01-28T01:30:06;28.35;;;19.33;;
57225;SDS011;43082;43.568;22.256;2023-01-28T01:32:33;26.00;;;19.10;;
57225;SDS011;43082;43.568;22.256;2023-01-28T01:35:02;23.48;;;17.15;;
57225;SDS011;43082;43.568;22.256;2023-01-28T01:37:30;19.25;;;13.82;;
57225;SDS011;43082;43.568;22.256;2023-01-28T01:39:56;16.67;;;12.40;;
57225;SDS011;43082;43.568;22.256;2023-01-28T01:42:21;17.58;;;12.18;;
57225;SDS011;43082;43.568;22.256;2023-01-28T01:52:41;18.13;;;12.52;;
57225;SDS011;43082;43.568;22.256;2023-01-28T01:55:09;16.02;;;10.68;;
57225;SDS011;43082;43.568;22.256;2023-01-28T01:57:36;15.35;;;10.55;;
57225;SDS011;43082;43.568;22.256;2023-01-28T02:00:03;14.90;;;9.75;;
57225;SDS011;43082;43.568;22.256;2023-01-28T02:02:32;17.95;;;12.57;;
57225;SDS011;43082;43.568;22.256;2023-01-28T02:05:04;16.80;;;11.77;;
57225;SDS011;43082;43.568;22.256;2023-01-28T02:07:31;15.32;;;10.05;;
57225;SDS011;43082;43.568;22.256;2023-01-28T02:09:56;15.27;;;11.00;;
57225;SDS011;43082;43.568;22.256;2023-01-28T02:12:23;15.20;;;11.05;;
57225;SDS011;43082;43.568;22.256;2023-01-28T02:14:52;14.80;;;10.85;;
57225;SDS011;43082;43.568;22.256;2023-01-28T02:17:19;15.43;;;10.70;;
57225;SDS011;43082;43.568;22.256;2023-01-28T02:31:33;19.65;;;13.38;;
57225;SDS011;43082;43.568;22.256;2023-01-28T02:36:31;28.13;;;17.63;;
57225;SDS011;43082;43.568;22.256;2023-01-28T02:39:12;25.85;;;16.15;;
57225;SDS011;43082;43.568;22.256;2023-01-28T02:41:52;29.98;;;18.45;;
57225;SDS011;43082;43.568;22.256;2023-01-28T02:44:21;32.08;;;21.02;;
57225;SDS011;43082;43.568;22.256;2023-01-28T02:46:50;28.92;;;18.33;;
57225;SDS011;43082;43.568;22.256;2023-01-28T02:49:38;28.70;;;18.98;;
57225;SDS011;43082;43.568;22.256;2023-01-28T02:55:16;26.30;;;17.38;;
57225;SDS011;43082;43.568;22.256;2023-01-28T03:05:22;19.13;;;14.27;;
57225;SDS011;43082;43.568;22.256;2023-01-28T03:07:54;25.58;;;18.05;;
57225;SDS011;43082;43.568;22.256;2023-01-28T03:10:21;23.30;;;15.70;;
57225;SDS011;43082;43.568;22.256;2023-01-28T03:12:50;21.17;;;14.23;;
57225;SDS011;43082;43.568;22.256;2023-01-28T03:15:42;14.35;;;10.43;;
57225;SDS011;43082;43.568;22.256;2023-01-28T03:18:36;13.10;;;9.55;;
57225;SDS011;43082;43.568;22.256;2023-01-28T03:21:24;13.32;;;9.18;;
57225;SDS011;43082;43.568;22.256;2023-01-28T03:24:37;14.73;;;9.93;;
57225;SDS011;43082;43.568;22.256;2023-01-28T03:27:27;16.58;;;11.48;;
57225;SDS011;43082;43.568;22.256;2023-01-28T03:30:21;17.20;;;11.05;;
57225;SDS011;43082;43.568;22.256;2023-01-28T03:33:08;17.02;;;11.02;;
57225;SDS011;43082;43.568;22.256;2023-01-28T03:35:53;14.77;;;10.43;;
57225;SDS011;43082;43.568;22.256;2023-01-28T03:38:38;15.05;;;10.45;;
57225;SDS011;43082;43.568;22.256;2023-01-28T03:41:18;14.15;;;9.48;;
57225;SDS011;43082;43.568;22.256;2023-01-28T03:46:13;11.57;;;8.05;;
57225;SDS011;43082;43.568;22.256;2023-01-28T03:48:38;11.70;;;7.95;;
57225;SDS011;43082;43.568;22.256;2023-01-28T03:51:04;13.35;;;8.80;;
57225;SDS011;43082;43.568;22.256;2023-01-28T03:53:29;13.48;;;9.32;;
57225;SDS011;43082;43.568;22.256;2023-01-28T03:55:54;13.43;;;9.70;;
57225;SDS011;43082;43.568;22.256;2023-01-28T03:58:20;13.80;;;9.55;;
57225;SDS011;43082;43.568;22.256;2023-01-28T04:00:47;13.38;;;9.10;;
57225;SDS011;43082;43.568;22.256;2023-01-28T04:03:13;13.20;;;8.57;;
57225;SDS011;43082;43.568;22.256;2023-01-28T04:08:21;11.93;;;8.13;;
57225;SDS011;43082;43.568;22.256;2023-01-28T04:10:47;14.27;;;9.80;;
57225;SDS011;43082;43.568;22.256;2023-01-28T04:13:13;13.80;;;9.85;;
57225;SDS011;43082;43.568;22.256;2023-01-28T04:15:38;16.02;;;9.90;;
57225;SDS011;43082;43.568;22.256;2023-01-28T04:18:03;13.18;;;9.57;;
57225;SDS011;43082;43.568;22.256;2023-01-28T04:20:29;13.70;;;9.05;;
57225;SDS011;43082;43.568;22.256;2023-01-28T04:22:55;12.88;;;8.80;;
57225;SDS011;43082;43.568;22.256;2023-01-28T04:25:20;14.10;;;8.55;;
57225;SDS011;43082;43.568;22.256;2023-01-28T04:27:46;14.00;;;9.25;;
57225;SDS011;43082;43.568;22.256;2023-01-28T04:30:11;14.52;;;9.70;;
57225;SDS011;43082;43.568;22.256;2023-01-28T04:32:36;14.85;;;9.85;;
57225;SDS011;43082;43.568;22.256;2023-01-28T04:35:02;15.75;;;9.60;;
57225;SDS011;43082;43.568;22.256;2023-01-28T04:37:27;14.63;;;9.90;;
57225;SDS011;43082;43.568;22.256;2023-01-28T04:39:53;15.50;;;10.68;;
57225;SDS011;43082;43.568;22.256;2023-01-28T04:42:18;15.93;;;9.82;;
57225;SDS011;43082;43.568;22.256;2023-01-28T04:44:43;16.85;;;11.18;;
57225;SDS011;43082;43.568;22.256;2023-01-28T04:47:09;17.63;;;12.68;;
57225;SDS011;43082;43.568;22.256;2023-01-28T04:49:34;15.88;;;11.23;;
57225;SDS011;43082;43.568;22.256;2023-01-28T04:51:59;15.43;;;10.48;;
57225;SDS011;43082;43.568;22.256;2023-01-28T04:54:25;15.70;;;10.82;;
57225;SDS011;43082;43.568;22.256;2023-01-28T04:56:50;18.10;;;12.32;;
57225;SDS011;43082;43.568;22.256;2023-01-28T04:59:15;18.05;;;12.02;;
57225;SDS011;43082;43.568;22.256;2023-01-28T05:01:41;19.33;;;12.05;;
57225;SDS011;43082;43.568;22.256;2023-01-28T05:04:06;16.67;;;11.05;;
57225;SDS011;43082;43.568;22.256;2023-01-28T05:06:33;16.27;;;11.45;;
57225;SDS011;43082;43.568;22.256;2023-01-28T05:08:59;15.95;;;10.90;;
57225;SDS011;43082;43.568;22.256;2023-01-28T05:11:24;15.40;;;10.82;;
57225;SDS011;43082;43.568;22.256;2023-01-28T05:13:50;18.88;;;13.68;;
57225;SDS011;43082;43.568;22.256;2023-01-28T05:16:15;18.20;;;12.50;;
57225;SDS011;43082;43.568;22.256;2023-01-28T05:18:41;17.13;;;11.70;;
57225;SDS011;43082;43.568;22.256;2023-01-28T05:21:06;16.65;;;11.77;;
57225;SDS011;43082;43.568;22.256;2023-01-28T05:23:32;16.15;;;11.10;;
57225;SDS011;43082;43.568;22.256;2023-01-28T05:25:57;15.32;;;10.77;;
57225;SDS011;43082;43.568;22.256;2023-01-28T05:28:22;17.05;;;11.80;;
57225;SDS011;43082;43.568;22.256;2023-01-28T05:30:48;20.02;;;14.25;;
57225;SDS011;43082;43.568;22.256;2023-01-28T05:33:13;19.15;;;12.82;;
57225;SDS011;43082;43.568;22.256;2023-01-28T05:35:38;16.70;;;11.90;;
57225;SDS011;43082;43.568;22.256;2023-01-28T05:38:04;16.85;;;11.95;;
57225;SDS011;43082;43.568;22.256;2023-01-28T05:40:30;18.73;;;13.13;;
57225;SDS011;43082;43.568;22.256;2023-01-28T05:42:55;17.42;;;12.20;;
57225;SDS011;43082;43.568;22.256;2023-01-28T05:45:20;16.75;;;11.45;;
57225;SDS011;43082;43.568;22.256;2023-01-28T05:47:46;18.77;;;12.90;;
57225;SDS011;43082;43.568;22.256;2023-01-28T05:50:11;21.48;;;15.05;;
57225;SDS011;43082;43.568;22.256;2023-01-28T05:52:37;24.75;;;17.20;;
57225;SDS011;43082;43.568;22.256;2023-01-28T05:55:03;24.17;;;17.10;;
57225;SDS011;43082;43.568;22.256;2023-01-28T05:57:29;33.50;;;22.67;;
57225;SDS011;43082;43.568;22.256;2023-01-28T05:59:54;27.98;;;18.58;;
57225;SDS011;43082;43.568;22.256;2023-01-28T06:02:20;33.42;;;21.48;;
57225;SDS011;43082;43.568;22.256;2023-01-28T06:04:45;28.45;;;19.27;;
57225;SDS011;43082;43.568;22.256;2023-01-28T06:07:11;33.05;;;21.48;;
57225;SDS011;43082;43.568;22.256;2023-01-28T06:09:37;24.35;;;15.98;;
57225;SDS011;43082;43.568;22.256;2023-01-28T06:12:03;22.65;;;14.50;;
57225;SDS011;43082;43.568;22.256;2023-01-28T06:14:28;20.05;;;14.13;;
57225;SDS011;43082;43.568;22.256;2023-01-28T06:16:54;26.83;;;18.48;;
57225;SDS011;43082;43.568;22.256;2023-01-28T06:19:19;24.15;;;17.27;;
57225;SDS011;43082;43.568;22.256;2023-01-28T06:21:45;23.35;;;15.55;;
57225;SDS011;43082;43.568;22.256;2023-01-28T06:24:10;22.27;;;16.40;;
57225;SDS011;43082;43.568;22.256;2023-01-28T06:26:36;19.42;;;14.80;;
57225;SDS011;43082;43.568;22.256;2023-01-28T06:29:01;30.17;;;20.70;;
57225;SDS011;43082;43.568;22.256;2023-01-28T06:31:27;26.85;;;18.38;;
57225;SDS011;43082;43.568;22.256;2023-01-28T06:33:52;29.00;;;21.77;;
57225;SDS011;43082;43.568;22.256;2023-01-28T06:36:17;32.13;;;24.83;;
57225;SDS011;43082;43.568;22.256;2023-01-28T06:38:43;44.58;;;31.73;;
57225;SDS011;43082;43.568;22.256;2023-01-28T06:41:08;50.05;;;34.67;;
57225;SDS011;43082;43.568;22.256;2023-01-28T06:43:34;66.28;;;42.33;;
57225;SDS011;43082;43.568;22.256;2023-01-28T06:45:59;27.00;;;18.85;;
57225;SDS011;43082;43.568;22.256;2023-01-28T06:48:25;21.38;;;15.02;;
57225;SDS011;43082;43.568;22.256;2023-01-28T06:50:51;20.02;;;14.35;;
57225;SDS011;43082;43.568;22.256;2023-01-28T06:53:16;17.73;;;12.43;;
57225;SDS011;43082;43.568;22.256;2023-01-28T06:55:42;31.55;;;20.83;;
57225;SDS011;43082;43.568;22.256;2023-01-28T06:58:07;20.70;;;15.05;;
57225;SDS011;43082;43.568;22.256;2023-01-28T07:00:33;32.17;;;22.42;;
57225;SDS011;43082;43.568;22.256;2023-01-28T07:02:58;27.98;;;19.75;;
57225;SDS011;43082;43.568;22.256;2023-01-28T07:05:24;15.63;;;11.07;;
57225;SDS011;43082;43.568;22.256;2023-01-28T07:07:49;21.42;;;15.77;;
57225;SDS011;43082;43.568;22.256;2023-01-28T07:10:15;21.83;;;16.17;;
57225;SDS011;43082;43.568;22.256;2023-01-28T07:12:41;30.08;;;20.55;;
57225;SDS011;43082;43.568;22.256;2023-01-28T07:15:06;36.58;;;25.85;;
57225;SDS011;43082;43.568;22.256;2023-01-28T07:17:34;32.03;;;23.70;;
57225;SDS011;43082;43.568;22.256;2023-01-28T07:20:00;53.35;;;37.13;;
57225;SDS011;43082;43.568;22.256;2023-01-28T07:22:25;27.65;;;21.33;;
57225;SDS011;43082;43.568;22.256;2023-01-28T07:24:51;20.30;;;15.85;;
57225;SDS011;43082;43.568;22.256;2023-01-28T07:27:16;24.40;;;19.05;;
57225;SDS011;43082;43.568;22.256;2023-01-28T07:29:41;18.35;;;13.63;;
57225;SDS011;43082;43.568;22.256;2023-01-28T07:32:07;38.45;;;27.83;;
57225;SDS011;43082;43.568;22.256;2023-01-28T07:34:32;20.70;;;15.82;;
57225;SDS011;43082;43.568;22.256;2023-01-28T07:36:58;32.40;;;24.95;;
57225;SDS011;43082;43.568;22.256;2023-01-28T07:39:23;29.98;;;20.05;;
57225;SDS011;43082;43.568;22.256;2023-01-28T07:41:49;29.95;;;20.30;;
57225;SDS011;43082;43.568;22.256;2023-01-28T07:44:14;31.25;;;20.90;;
57225;SDS011;43082;43.568;22.256;2023-01-28T07:46:40;29.05;;;22.90;;
57225;SDS011;43082;43.568;22.256;2023-01-28T07:49:05;29.77;;;19.50;;
57225;SDS011;43082;43.568;22.256;2023-01-28T07:51:30;28.92;;;21.45;;
57225;SDS011;43082;43.568;22.256;2023-01-28T07:53:56;28.50;;;20.98;;
57225;SDS011;43082;43.568;22.256;2023-01-28T07:56:21;27.55;;;20.88;;
57225;SDS011;43082;43.568;22.256;2023-01-28T07:58:50;26.33;;;20.17;;
57225;SDS011;43082;43.568;22.256;2023-01-28T08:01:15;22.52;;;18.42;;
57225;SDS011;43082;43.568;22.256;2023-01-28T08:03:42;23.92;;;18.58;;
57225;SDS011;43082;43.568;22.256;2023-01-28T08:06:07;25.65;;;20.13;;
57225;SDS011;43082;43.568;22.256;2023-01-28T08:08:33;26.20;;;16.85;;
57225;SDS011;43082;43.568;22.256;2023-01-28T08:10:58;32.17;;;19.10;;
57225;SDS011;43082;43.568;22.256;2023-01-28T08:13:24;26.88;;;18.02;;
57225;SDS011;43082;43.568;22.256;2023-01-28T08:15:53;21.63;;;15.43;;
57225;SDS011;43082;43.568;22.256;2023-01-28T08:18:19;33.10;;;27.10;;
57225;SDS011;43082;43.568;22.256;2023-01-28T08:20:44;35.80;;;24.83;;
57225;SDS011;43082;43.568;22.256;2023-01-28T08:25:39;40.20;;;31.92;;
57225;SDS011;43082;43.568;22.256;2023-01-28T08:28:05;38.00;;;30.33;;
57225;SDS011;43082;43.568;22.256;2023-01-28T08:30:31;28.13;;;21.70;;
57225;SDS011;43082;43.568;22.256;2023-01-28T08:32:57;43.72;;;33.40;;
57225;SDS011;43082;43.568;22.256;2023-01-28T08:35:26;38.58;;;30.92;;
57225;SDS011;43082;43.568;22.256;2023-01-28T08:37:52;35.42;;;28.92;;
57225;SDS011;43082;43.568;22.256;2023-01-28T08:40:18;21.35;;;16.65;;
57225;SDS011;43082;43.568;22.256;2023-01-28T08:42:50;37.40;;;31.00;;
57225;SDS011;43082;43.568;22.256;2023-01-28T08:45:17;40.85;;;32.97;;
57225;SDS011;43082;43.568;22.256;2023-01-28T08:47:50;48.63;;;38.88;;
57225;SDS011;43082;43.568;22.256;2023-01-28T08:50:18;48.10;;;37.45;;
57225;SDS011;43082;43.568;22.256;2023-01-28T08:52:45;55.15;;;43.97;;
57225;SDS011;43082;43.568;22.256;2023-01-28T08:55:11;55.17;;;44.20;;
57225;SDS011;43082;43.568;22.256;2023-01-28T08:57:37;56.75;;;42.92;;
57225;SDS011;43082;43.568;22.256;2023-01-28T09:00:04;64.35;;;47.10;;
57225;SDS011;43082;43.568;22.256;2023-01-28T09:02:30;65.35;;;48.13;;
57225;SDS011;43082;43.568;22.256;2023-01-28T09:04:56;38.75;;;30.42;;
57225;SDS011;43082;43.568;22.256;2023-01-28T09:07:21;46.55;;;35.20;;
57225;SDS011;43082;43.568;22.256;2023-01-28T09:09:47;46.55;;;36.25;;
57225;SDS011;43082;43.568;22.256;2023-01-28T09:12:12;40.22;;;31.88;;
57225;SDS011;43082;43.568;22.256;2023-01-28T09:14:37;39.95;;;31.58;;
57225;SDS011;43082;43.568;22.256;2023-01-28T09:17:03;50.47;;;39.55;;
57225;SDS011;43082;43.568;22.256;2023-01-28T09:19:29;38.30;;;30.27;;
57225;SDS011;43082;43.568;22.256;2023-01-28T09:21:54;41.33;;;34.65;;
57225;SDS011;43082;43.568;22.256;2023-01-28T09:24:20;45.55;;;38.25;;
57225;SDS011;43082;43.568;22.256;2023-01-28T09:26:47;66.78;;;56.33;;
57225;SDS011;43082;43.568;22.256;2023-01-28T09:29:13;45.08;;;35.90;;
57225;SDS011;43082;43.568;22.256;2023-01-28T09:31:39;52.78;;;38.47;;
57225;SDS011;43082;43.568;22.256;2023-01-28T09:34:05;44.63;;;32.80;;
57225;SDS011;43082;43.568;22.256;2023-01-28T09:36:30;23.50;;;16.92;;
57225;SDS011;43082;43.568;22.256;2023-01-28T09:38:56;29.27;;;23.17;;
57225;SDS011;43082;43.568;22.256;2023-01-28T09:41:24;31.42;;;24.73;;
57225;SDS011;43082;43.568;22.256;2023-01-28T09:44:13;31.42;;;22.80;;
57225;SDS011;43082;43.568;22.256;2023-01-28T09:46:44;28.63;;;21.15;;
57225;SDS011;43082;43.568;22.256;2023-01-28T09:49:29;19.80;;;15.40;;
57225;SDS011;43082;43.568;22.256;2023-01-28T09:51:58;22.88;;;17.67;;
57225;SDS011;43082;43.568;22.256;2023-01-28T09:54:46;33.05;;;23.00;;
57225;SDS011;43082;43.568;22.256;2023-01-28T09:57:24;28.27;;;19.83;;
57225;SDS011;43082;43.568;22.256;2023-01-28T09:59:51;27.05;;;21.48;;
57225;SDS011;43082;43.568;22.256;2023-01-28T10:08:00;35.45;;;26.02;;
57225;SDS011;43082;43.568;22.256;2023-01-28T10:10:42;21.95;;;15.70;;
57225;SDS011;43082;43.568;22.256;2023-01-28T10:13:30;26.30;;;19.58;;
57225;SDS011;43082;43.568;22.256;2023-01-28T10:18:51;16.52;;;12.38;;
57225;SDS011;43082;43.568;22.256;2023-01-28T10:21:21;17.70;;;12.60;;
57225;SDS011;43082;43.568;22.256;2023-01-28T10:23:56;28.02;;;19.42;;
57225;SDS011;43082;43.568;22.256;2023-01-28T10:26:30;28.75;;;20.40;;
57225;SDS011;43082;43.568;22.256;2023-01-28T10:28:59;37.40;;;26.48;;
57225;SDS011;43082;43.568;22.256;2023-01-28T10:31:31;38.90;;;26.52;;
57225;SDS011;43082;43.568;22.256;2023-01-28T10:34:00;49.08;;;33.33;;
57225;SDS011;43082;43.568;22.256;2023-01-28T10:36:26;42.85;;;29.17;;
57225;SDS011;43082;43.568;22.256;2023-01-28T10:38:52;34.95;;;23.92;;
57225;SDS011;43082;43.568;22.256;2023-01-28T10:41:19;46.00;;;30.42;;
57225;SDS011;43082;43.568;22.256;2023-01-28T10:43:45;39.47;;;26.50;;
57225;SDS011;43082;43.568;22.256;2023-01-28T10:46:21;41.05;;;25.88;;
57225;SDS011;43082;43.568;22.256;2023-01-28T10:51:51;38.00;;;27.08;;
57225;SDS011;43082;43.568;22.256;2023-01-28T10:54:24;54.42;;;36.10;;
57225;SDS011;43082;43.568;22.256;2023-01-28T10:56:52;29.83;;;22.75;;
57225;SDS011;43082;43.568;22.256;2023-01-28T11:01:52;39.85;;;27.70;;
57225;SDS011;43082;43.568;22.256;2023-01-28T11:04:21;43.78;;;30.02;;
57225;SDS011;43082;43.568;22.256;2023-01-28T11:09:44;21.45;;;15.48;;
57225;SDS011;43082;43.568;22.256;2023-01-28T11:12:21;24.08;;;18.02;;
57225;SDS011;43082;43.568;22.256;2023-01-28T11:14:55;35.80;;;25.55;;
57225;SDS011;43082;43.568;22.256;2023-01-28T11:17:26;26.50;;;18.52;;
57225;SDS011;43082;43.568;22.256;2023-01-28T11:19:54;46.75;;;35.13;;
57225;SDS011;43082;43.568;22.256;2023-01-28T11:25:02;26.40;;;17.65;;
57225;SDS011;43082;43.568;22.256;2023-01-28T11:27:30;26.58;;;17.80;;
57225;SDS011;43082;43.568;22.256;2023-01-28T11:29:57;31.70;;;22.30;;
57225;SDS011;43082;43.568;22.256;2023-01-28T11:32:27;27.48;;;20.20;;
57225;SDS011;43082;43.568;22.256;2023-01-28T11:34:54;26.27;;;19.33;;
57225;SDS011;43082;43.568;22.256;2023-01-28T11:37:22;29.15;;;22.75;;
57225;SDS011;43082;43.568;22.256;2023-01-28T11:40:03;28.00;;;20.45;;
57225;SDS011;43082;43.568;22.256;2023-01-28T11:42:40;21.17;;;15.73;;
57225;SDS011;43082;43.568;22.256;2023-01-28T11:45:09;24.95;;;17.60;;
57225;SDS011;43082;43.568;22.256;2023-01-28T11:47:43;31.50;;;22.23;;
57225;SDS011;43082;43.568;22.256;2023-01-28T11:50:14;29.88;;;22.30;;
57225;SDS011;43082;43.568;22.256;2023-01-28T12:01:15;48.75;;;36.85;;
57225;SDS011;43082;43.568;22.256;2023-01-28T12:09:33;26.90;;;20.35;;
57225;SDS011;43082;43.568;22.256;2023-01-28T12:21:04;31.08;;;23.40;;
57225;SDS011;43082;43.568;22.256;2023-01-28T12:29:07;36.53;;;29.23;;
57225;SDS011;43082;43.568;22.256;2023-01-28T12:42:50;43.05;;;33.20;;
57225;SDS011;43082;43.568;22.256;2023-01-28T12:47:59;31.33;;;24.25;;
57225;SDS011;43082;43.568;22.256;2023-01-28T12:50:32;59.65;;;44.38;;
57225;SDS011;43082;43.568;22.256;2023-01-28T12:53:09;34.42;;;27.73;;
57225;SDS011;43082;43.568;22.256;2023-01-28T12:55:50;32.83;;;25.23;;
57225;SDS011;43082;43.568;22.256;2023-01-28T12:58:22;26.15;;;20.55;;
57225;SDS011;43082;43.568;22.256;2023-01-28T13:00:53;19.33;;;14.95;;
57225;SDS011;43082;43.568;22.256;2023-01-28T13:03:25;70.30;;;54.25;;
57225;SDS011;43082;43.568;22.256;2023-01-28T13:05:56;49.45;;;39.90;;
57225;SDS011;43082;43.568;22.256;2023-01-28T13:08:25;47.10;;;33.97;;
57225;SDS011;43082;43.568;22.256;2023-01-28T13:10:51;40.90;;;31.88;;
57225;SDS011;43082;43.568;22.256;2023-01-28T13:13:37;57.40;;;37.90;;
57225;SDS011;43082;43.568;22.256;2023-01-28T13:16:06;37.92;;;26.17;;
57225;SDS011;43082;43.568;22.256;2023-01-28T13:24:35;24.52;;;17.42;;
57225;SDS011;43082;43.568;22.256;2023-01-28T13:26:43;29.75;;;20.77;;
57225;SDS011;43082;43.568;22.256;2023-01-28T13:31:58;35.67;;;26.67;;
57225;SDS011;43082;43.568;22.256;2023-01-28T13:34:33;27.60;;;20.50;;
57225;SDS011;43082;43.568;22.256;2023-01-28T13:39:51;41.05;;;30.80;;
57225;SDS011;43082;43.568;22.256;2023-01-28T13:42:27;43.50;;;31.88;;
57225;SDS011;43082;43.568;22.256;2023-01-28T13:44:54;48.35;;;37.63;;
57225;SDS011;43082;43.568;22.256;2023-01-28T13:47:30;34.03;;;27.58;;
57225;SDS011;43082;43.568;22.256;2023-01-28T13:49:59;46.20;;;35.67;;
57225;SDS011;43082;43.568;22.256;2023-01-28T13:52:35;46.58;;;35.60;;
57225;SDS011;43082;43.568;22.256;2023-01-28T14:17:11;98.63;;;71.93;;
57225;SDS011;43082;43.568;22.256;2023-01-28T14:19:16;44.97;;;35.03;;
57225;SDS011;43082;43.568;22.256;2023-01-28T14:21:44;50.03;;;35.88;;
57225;SDS011;43082;43.568;22.256;2023-01-28T14:24:12;53.65;;;40.22;;
57225;SDS011;43082;43.568;22.256;2023-01-28T14:34:51;35.42;;;25.20;;
57225;SDS011;43082;43.568;22.256;2023-01-28T14:37:18;46.55;;;33.97;;
57225;SDS011;43082;43.568;22.256;2023-01-28T14:42:16;103.90;;;73.95;;
57225;SDS011;43082;43.568;22.256;2023-01-28T14:44:44;110.10;;;75.20;;
57225;SDS011;43082;43.568;22.256;2023-01-28T14:52:46;63.40;;;47.28;;
57225;SDS011;43082;43.568;22.256;2023-01-28T14:57:58;59.05;;;44.88;;
57225;SDS011;43082;43.568;22.256;2023-01-28T15:00:30;71.53;;;51.40;;
57225;SDS011;43082;43.568;22.256;2023-01-28T15:02:57;44.05;;;34.53;;
57225;SDS011;43082;43.568;22.256;2023-01-28T15:05:23;21.88;;;17.60;;
57225;SDS011;43082;43.568;22.256;2023-01-28T15:07:51;46.15;;;36.35;;
57225;SDS011;43082;43.568;22.256;2023-01-28T15:10:30;53.88;;;42.35;;
57225;SDS011;43082;43.568;22.256;2023-01-28T15:15:39;59.25;;;46.88;;
57225;SDS011;43082;43.568;22.256;2023-01-28T15:20:42;31.15;;;23.90;;
57225;SDS011;43082;43.568;22.256;2023-01-28T15:23:08;30.50;;;23.35;;
57225;SDS011;43082;43.568;22.256;2023-01-28T15:25:34;37.20;;;27.52;;
57225;SDS011;43082;43.568;22.256;2023-01-28T15:27:59;31.65;;;24.63;;
57225;SDS011;43082;43.568;22.256;2023-01-28T15:30:30;49.58;;;36.38;;
57225;SDS011;43082;43.568;22.256;2023-01-28T15:32:57;55.25;;;38.28;;
57225;SDS011;43082;43.568;22.256;2023-01-28T15:35:23;46.33;;;34.17;;
57225;SDS011;43082;43.568;22.256;2023-01-28T15:37:49;49.40;;;38.10;;
57225;SDS011;43082;43.568;22.256;2023-01-28T15:40:17;83.03;;;63.40;;
57225;SDS011;43082;43.568;22.256;2023-01-28T15:42:45;69.97;;;54.78;;
57225;SDS011;43082;43.568;22.256;2023-01-28T15:45:18;88.20;;;71.00;;
57225;SDS011;43082;43.568;22.256;2023-01-28T15:47:45;71.18;;;56.08;;
57225;SDS011;43082;43.568;22.256;2023-01-28T15:50:19;88.05;;;67.22;;
57225;SDS011;43082;43.568;22.256;2023-01-28T15:52:49;59.78;;;48.25;;
57225;SDS011;43082;43.568;22.256;2023-01-28T15:57:51;61.20;;;49.17;;
57225;SDS011;43082;43.568;22.256;2023-01-28T16:00:20;45.35;;;35.92;;
57225;SDS011;43082;43.568;22.256;2023-01-28T16:02:46;63.95;;;48.67;;
57225;SDS011;43082;43.568;22.256;2023-01-28T16:08:01;79.32;;;57.33;;
57225;SDS011;43082;43.568;22.256;2023-01-28T16:10:27;70.13;;;54.08;;
57225;SDS011;43082;43.568;22.256;2023-01-28T16:13:39;31.77;;;23.83;;
57225;SDS011;43082;43.568;22.256;2023-01-28T16:15:51;57.15;;;41.90;;
57225;SDS011;43082;43.568;22.256;2023-01-28T16:18:20;86.13;;;59.38;;
57225;SDS011;43082;43.568;22.256;2023-01-28T16:20:50;84.38;;;63.95;;
57225;SDS011;43082;43.568;22.256;2023-01-28T16:23:20;74.38;;;54.42;;
57225;SDS011;43082;43.568;22.256;2023-01-28T16:25:56;54.80;;;42.10;;
57225;SDS011;43082;43.568;22.256;2023-01-28T16:28:24;63.13;;;47.63;;
57225;SDS011;43082;43.568;22.256;2023-01-28T16:30:49;63.58;;;47.72;;
57225;SDS011;43082;43.568;22.256;2023-01-28T16:33:20;68.03;;;50.92;;
57225;SDS011;43082;43.568;22.256;2023-01-28T16:35:46;112.93;;;84.70;;
57225;SDS011;43082;43.568;22.256;2023-01-28T16:38:13;48.33;;;36.90;;
57225;SDS011;43082;43.568;22.256;2023-01-28T16:40:41;86.13;;;63.55;;
57225;SDS011;43082;43.568;22.256;2023-01-28T16:43:08;56.50;;;42.45;;
57225;SDS011;43082;43.568;22.256;2023-01-28T16:45:35;57.38;;;44.60;;
57225;SDS011;43082;43.568;22.256;2023-01-28T16:48:00;54.38;;;42.67;;
57225;SDS011;43082;43.568;22.256;2023-01-28T16:50:26;58.70;;;45.17;;
57225;SDS011;43082;43.568;22.256;2023-01-28T16:52:52;58.88;;;46.95;;
57225;SDS011;43082;43.568;22.256;2023-01-28T16:55:19;56.85;;;43.38;;
57225;SDS011;43082;43.568;22.256;2023-01-28T16:57:46;82.75;;;65.25;;
57225;SDS011;43082;43.568;22.256;2023-01-28T17:00:17;52.15;;;42.00;;
57225;SDS011;43082;43.568;22.256;2023-01-28T17:02:44;49.78;;;38.42;;